Create Custom Reports and Graphics: Custom Report

North/Central Map

Map

15 Minute Data

South County Map

Map

15 Minute Data

Northern Sonoma County Latest

13 Stations

15 Minute Data | America/Los_Angeles
as of 11/16/19 9:49 PM PST
Station Date Time Temp (°F) RH (%) Dew Pt (°F) Wind Spd (mph) Wind Dir (°) Wind Gust (mph) Latest Rain (In) Daily Rain (In) Daily Min Temp (°F) Daily Max Temp (°F)
Cooley-Rockpile 11/16/19 2100 59.9   9.4 61   39 46.3   4.2 9.1 NNW | 338 12.9   0.9 0.00 0.01 48.0   2.4 77.0   14.3
Cooley Lower Remote 11/16/19 2045 62.3   9.2 56   38 46.5   4.8 3.6 NNW | 336 5.7   0.2 0.00 0.00 50.0   2.8 79.8   13.3
Rancho Alexander-Cloverdale 11/16/19 2145 48.5   6.8 80   6 42.4   8.5 1.1 SE | 138 3.9   0.2 0.00 0.00 47.4   0.4 76.7   6.4
Ranch 38 (Cloverdale-SE) 11/16/19 2145 59.3   3.2 57   30 43.9   8.2 3.4 NNW | 348 6.9   3.1 0.00 0.00 49.6   2.1 77.8   7.8
Hoffman - Geyserville 11/16/19 2145 46.0   8.4 88   1 42.7   8.0 0.4 NW | 311 1.6   0.9 0.00 0.00 40.1   4.0 76.8   5.2
Geyserville Ranch 3 11/16/19 2145 47.7   8.2 92   5 45.6   6.6 0.6 WNW | 293 1.7   6.0 0.00 0.00 43.6   2.9 77.2   7.1
Ranch 40 (Geyserville-NE) 11/16/19 2145 60.1   4.7 65   23 48.4   3.5 1.2 WSW | 241 2.3   5.7 0.00 0.00 48.3   1.4 79.0   7.2
Geyserville - S (Nervo Station) 11/16/19 2145 55.4   0.3 82   6 50.0   1.7 0.6 NW | 305 2.4   0.7 0.00 0.00 46.7   0.4 77.3   4.5
River Oaks (Lytton) 11/16/19 2145 44.6   4.8 94   3 42.9   5.6 0.6 ESE | 111 2.6   1.3 0.00 0.00 37.4   7.2 79.3   5.7
Piccolo - Alexander Valley 11/16/19 2145 46.6   3.0 100   11 46.6   0.2 0.8 N | 10 2.2   1.5 0.00 0.00 38.3   7.7 78.1   6.7
Red Fan 11/16/19 2145 47.2   1.6 90   3 44.6   2.4 0.8 NE | 43 2.5   0.1 0.00 0.00 38.7   7.4 79.1   6.7
Landslide 11/16/19 2145 44.7   1.0 89   3 41.7   1.8 0.2 NE | 51 1.1   0.1 0.00 0.00 37.6   7.4 79.0   5.2
Dry Creek Valley 11/16/19 2145 47.0   4.2 93   2 45.1   4.9 0.2 W | 281 1.5   1.4 0.00 0.00 39.3   5.3 76.0   3.2
Max     62.3 100 50.0 9.1 - 12.9 0.00 0.01 50.0 79.8
Avg     51.5 80 45.1 1.7 - 3.7 0.00 - - -
Min     44.6 56 41.7 0.2 - 1.1 0.00 0.00 37.4 76.0

Central Sonoma County Latest

22 Stations

15 Minute Data | America/Los_Angeles
as of 11/16/19 9:49 PM PST
Station Date Time Temp (°F) RH (%) Dew Pt (°F) Wind Spd (mph) Wind Dir (°) Wind Gust (mph) Latest Rain (In) Daily Rain (In) Daily Min Temp (°F) Daily Max Temp (°F)
Healdsburg - S (Sodini) 11/16/19 2145 48.5   0.0 90   4 45.7   1.2 0.0 N | 0 0.0   0.0 0.00 0.01 39.5   4.0 76.4   3.6
Ranch 8 (Windsor-NW) 11/16/19 2145 53.2   2.2 88   3 49.8   1.4 0.5 E | 99 1.8   0.0 0.00 0.00 41.8   3.9 76.1   1.7
Foothill Ranch 16 11/16/19 2145 47.0   0.7 92   4 44.6   1.9 0.0 N | 0 0.0   1.7 0.00 0.00 39.7   4.2 74.6   1.2
Airport Ranch 14 11/16/19 2145 48.2   2.8 94   4 46.4   4.0 0.0 N | 0 0.0   1.5 0.00 0.00 43.1   2.3 73.5   0.1
Silk Road 11/16/19 2145 43.7   5.1 97   3 42.8   6.0 0.0 SE | 146 0.4   1.3 0.00 0.00 40.8   0.0 74.1   1.0
Oak Meadows Ranch 5 11/16/19 2145 46.8   2.5 98   2 46.2   3.0 0.0 N | 0 0.0   1.2 0.00 0.00 42.8   0.9 72.8   1.2
Laughlin Rd (Windsor-South) 11/16/19 2145 48.5   2.3 95   5 47.0   3.7 - - - 0.00 0.00 41.6   2.4 73.5   1.1
Barnes Rd (SE Fulton) 11/16/19 2145 47.6   3.4 92   5 45.4   4.7 0.1 NE | 38 0.8   1.3 0.00 0.01 41.8   2.4 71.9   0.9
Crinella Ranch 21 11/16/19 2145 46.7   4.8 90   10 44.0   7.4 1.0 S | 184 1.5   3.0 0.00 0.01 41.6   2.7 72.5   0.3
Denner Ranch Base 11/16/19 2145 47.2   4.0 96   4 46.0   5.1 0.7 SSE | 147 1.8   3.1 0.00 0.01 41.7   2.7 73.9   1.9
Guerneville Road (Santa Rosa Plains) 11/16/19 2145 43.2   8.3 92   6 41.2   9.8 0.1 ENE | 77 1.0   1.8 0.00 0.01 43.0   1.6 72.6   2.4
Rich Ranch (Guerneville Rd) 11/16/19 2145 45.5   6.8 96   4 44.5   7.8 - - - - - 43.1   1.7 73.3   0.3
Occidental Rd (Sebastopol) 11/16/19 2145 44.5   7.0 88   12 41.1   10.5 0.0 SSE | 150 1.3   1.8 0.00 0.01 41.7   3.7 73.1   1.4
Garrison Ranch 12 11/16/19 2145 46.3   0.5 93   4 44.5   0.7 0.0 N | 0 0.0   0.0 0.00 0.00 38.4   2.3 76.0   1.8
Laughlin Rd (Guerneville) 11/16/19 2145 44.6   5.7 97   3 43.7   6.5 0.0 N | 0 0.0   1.5 0.00 0.00 44.1   0.4 75.6   5.0
Korbel Winery 11/16/19 2145 48.4   1.9 98   2 47.9   2.3 0.1 WSW | 247 1.0   0.5 0.00 0.01 46.8   0.4 76.9   6.0
Shone Farms (Forestville) 11/16/19 2145 50.0   0.2 90   6 47.1   1.7 0.2 SW | 225 1.0   0.5 0.00 0.00 42.6   1.4 74.4   1.8
Ranch 30 (Forestville-NE) 11/16/19 2145 47.7   0.5 96   1 46.7   0.6 0.6 SE | 142 1.9   1.5 0.00 0.00 43.1   1.4 75.0   0.8
Dutton Ranch (Graton-West) 11/16/19 2145 45.5   0.8 100   0 45.5   0.8 0.6 S | 190 1.4   0.0 0.00 0.00 37.6   4.2 76.1   3.0
Mill Station Rd (Graton-South) 11/16/19 2145 45.2   0.0 96   1 44.1   0.2 0.0 N | 0 0.0   1.6 0.00 0.00 38.3   3.2 72.4   2.5
Burnside Road (Sebastopol Hills) 11/16/19 2145 54.5   2.7 87   12 50.6   0.9 0.2 NNW | 327 1.1   0.7 0.00 0.00 46.0   1.1 71.0   3.5
Hirsch Vineyards 11/16/19 2145 66.5   13.7 43   54 43.1   8.9 2.9 NE | 51 4.2   0.1 0.00 0.00 51.4   5.1 71.6   15.3
Max     66.5 100 50.6 2.9 - 4.2 0.00 0.01 51.4 76.9
Avg     48.1 91 45.4 0.4 - 0.9 0.00 - - -
Min     43.2 43 41.1 0.0 - 0.0 0.00 0.00 37.6 71.0

Southern Sonoma County Latest

14 Stations

15 Minute Data | America/Los_Angeles
as of 11/16/19 9:49 PM PST
Station Date Time Temp (°F) RH (%) Dew Pt (°F) Wind Spd (mph) Wind Dir (°) Wind Gust (mph) Latest Rain (In) Daily Rain (In) Daily Min Temp (°F) Daily Max Temp (°F)
Lower Bennett Valley 11/16/19 2145 41.5   3.8 92   7 39.4   5.7 0.2 SSE | 155 1.3   0.7 0.00 0.00 35.6   8.7 73.8   4.0
Kunde - Kenwood 11/16/19 2100 44.6   4.7 86   5 40.8   6.2 0.0 N | 0 0.0   0.0 0.00 0.00 35.2   12.0 74.2   3.7
Sonoma Valley (Bedrock) 11/16/19 2145 45.3   7.2 91   3 42.8   6.4 0.3 NNE | 19 2.7   0.3 0.00 0.00 37.6   10.3 71.7   0.5
Arnold (Sonoma) 11/16/19 2145 45.6   0.9 88   6 42.2   2.7 1.4 WNW | 290 2.4   0.7 0.00 0.00 42.5   3.8 72.4   0.8
Schellville 11/16/19 2145 46.0   6.6 94   4 44.5   7.7 0.0 N | 0 0.0   2.4 0.00 0.00 45.0   4.3 72.3   2.7
Napoli (Sonoma-SE) 11/16/19 2145 46.7   3.4 91   4 44.3   4.4 0.0 N | 0 0.0   3.1 0.00 0.02 44.7   2.9 74.5   0.0
Diamond R71 (Carneros) 11/16/19 2145 56.1   5.0 79   21 49.7   1.4 2.2 N | 11 3.7   0.1 0.00 0.00 47.2   2.6 71.0   0.2
Huichica Upper 11/16/19 2145 56.9   4.8 78   19 50.3   1.2 2.5 NE | 53 3.6   1.1 - - 47.1   3.1 71.2   0.5
Huichica-Lower 11/16/19 2145 46.0   3.3 90   5 43.4   4.7 0.9 N | 6 2.7   0.8 0.00 0.00 43.5   4.4 70.0   1.5
Stony Point (West Rohnert Park) 11/16/19 2145 41.9   10.2 94   5 40.3   11.4 0.3 SE | 135 1.3   0.4 0.00 0.01 41.7   3.9 71.8   2.7
Asellus (Penngrove) 11/16/19 2145 42.2   9.9 95   5 40.8   11.3 0.4 NNW | 337 1.7   2.1 0.00 0.01 41.9   5.7 74.2   4.2
Rodger's Creek 11/16/19 2145 57.1   6.2 75   25 49.1   1.8 1.1 WNW | 296 2.6   1.7 0.00 0.00 45.7   3.1 71.7   3.5
Frates R10 (East Petaluma) 11/8/19 1215 65.4   3.3 54   9 48.4   1.0 2.7 WNW | 289 5.7   0.8 0.00 0.00 47.0   1.8 66.6   3.8
Sleepy Hollow-Lakeville 11/16/19 2145 46.6   7.4 92   5 44.5   8.8 2.5 NW | 309 4.3   3.9 0.00 0.00 46.1   2.9 68.4   2.3
Max     57.1 95 50.3 2.5 - 4.3 0.00 0.02 47.2 74.5
Avg     47.4 88 44.0 0.9 - 2.0 0.00 - - -
Min     41.5 75 39.4 0.0 - 0.0 0.00 0.00 35.2 68.4